createdAt,value
2017-09-22T00:03:11.731Z,7.40
2017-09-22T00:05:39.423Z,3.93
2017-09-22T00:08:07.031Z,5.53
2017-09-22T00:10:34.641Z,6.40
2017-09-22T00:13:02.314Z,4.13
2017-09-22T00:15:29.953Z,4.67
2017-09-22T00:17:57.569Z,5.13
2017-09-22T00:20:25.260Z,6.63
2017-09-22T00:22:52.877Z,5.27
2017-09-22T00:25:20.494Z,4.13
2017-09-22T00:27:48.166Z,3.80
2017-09-22T00:30:15.776Z,8.73
2017-09-22T00:32:43.393Z,5.50
2017-09-22T00:35:11.088Z,4.60
2017-09-22T00:37:38.703Z,8.50
2017-09-22T00:40:06.313Z,9.40
2017-09-22T00:42:33.989Z,5.53
2017-09-22T00:45:01.597Z,7.73
2017-09-22T00:47:29.208Z,6.27
2017-09-22T00:49:56.876Z,5.70
2017-09-22T00:52:24.487Z,6.53
2017-09-22T00:54:52.109Z,5.20
2017-09-22T00:57:19.856Z,3.33
2017-09-22T00:59:47.478Z,4.57
2017-09-22T01:02:15.080Z,6.40
2017-09-22T01:04:42.752Z,5.40
2017-09-22T01:07:10.362Z,3.17
2017-09-22T01:09:37.979Z,7.53
2017-09-22T01:12:05.675Z,4.63
2017-09-22T01:14:33.292Z,3.77
2017-09-22T01:17:00.910Z,6.47
2017-09-22T01:19:29.722Z,8.90
2017-09-22T01:21:57.343Z,4.50
2017-09-22T01:27:04.976Z,6.90
2017-09-22T01:29:32.587Z,6.47
2017-09-22T01:32:00.204Z,8.70
2017-09-22T01:34:27.880Z,5.67
2017-09-22T01:36:56.309Z,6.83
2017-09-22T01:39:23.923Z,7.13
2017-09-22T01:41:51.612Z,6.73
2017-09-22T01:44:19.233Z,8.47
2017-09-22T01:46:46.847Z,7.17
2017-09-22T01:49:14.532Z,9.20
2017-09-22T01:51:42.148Z,6.13
2017-09-22T01:54:09.773Z,5.33
2017-09-22T01:56:37.456Z,9.07
2017-09-22T01:59:05.077Z,6.57
2017-09-22T02:01:32.685Z,5.17
2017-09-22T02:04:00.352Z,6.47
2017-09-22T02:06:27.969Z,6.73
2017-09-22T02:08:55.599Z,4.07
2017-09-22T02:11:23.301Z,7.13
2017-09-22T02:13:50.915Z,7.23
2017-09-22T02:16:18.527Z,6.07
2017-09-22T02:18:46.673Z,5.67
2017-09-22T02:21:14.191Z,5.23
2017-09-22T02:23:42.750Z,4.47
2017-09-22T02:26:10.420Z,4.87
2017-09-22T02:28:38.043Z,6.50
2017-09-22T02:31:05.655Z,7.33
2017-09-22T02:33:33.352Z,5.73
2017-09-22T02:36:00.967Z,6.83
2017-09-22T02:38:28.585Z,9.60
2017-09-22T02:40:56.252Z,7.63
2017-09-22T02:43:23.867Z,9.37
2017-09-22T02:45:51.483Z,9.33
2017-09-22T02:48:19.176Z,13.93
2017-09-22T02:50:46.791Z,9.63
2017-09-22T02:55:55.546Z,8.63
2017-09-22T02:58:23.154Z,9.07
2017-09-22T03:00:50.768Z,8.50
2017-09-22T03:03:18.454Z,5.67
2017-09-22T03:05:46.072Z,4.97
2017-09-22T03:08:13.690Z,4.63
2017-09-22T03:10:41.382Z,6.17
2017-09-22T03:13:08.989Z,5.40
2017-09-22T03:15:36.606Z,6.10
2017-09-22T03:18:04.279Z,6.53
2017-09-22T03:20:31.894Z,5.33
2017-09-22T03:22:59.514Z,7.67
2017-09-22T03:25:27.202Z,8.97
2017-09-22T03:27:54.813Z,4.87
2017-09-22T03:30:22.426Z,6.57
2017-09-22T03:32:50.093Z,7.43
2017-09-22T03:35:17.710Z,6.50
2017-09-22T03:37:45.329Z,5.97
2017-09-22T03:40:13.021Z,6.37
2017-09-22T03:42:40.638Z,5.47
2017-09-22T03:45:08.258Z,7.30
2017-09-22T03:47:35.924Z,6.87
2017-09-22T03:50:03.541Z,9.27
2017-09-22T03:52:31.161Z,6.73
2017-09-22T03:54:58.835Z,8.07
2017-09-22T03:57:26.453Z,6.47
2017-09-22T03:59:54.076Z,8.83
2017-09-22T04:02:21.768Z,13.27
2017-09-22T04:04:49.385Z,6.43
2017-09-22T04:07:16.999Z,13.43
2017-09-22T04:09:44.668Z,5.73
2017-09-22T04:12:12.279Z,5.93
2017-09-22T04:14:39.891Z,8.10
2017-09-22T04:17:07.592Z,8.03
2017-09-22T04:19:35.210Z,8.67
2017-09-22T04:24:43.958Z,9.25
2017-09-22T04:27:11.574Z,8.83
2017-09-22T04:29:39.187Z,6.23
2017-09-22T04:32:06.878Z,6.00
2017-09-22T04:34:34.496Z,5.63
2017-09-22T04:37:02.109Z,10.67
2017-09-22T04:39:29.779Z,5.33
2017-09-22T04:41:57.399Z,7.50
2017-09-22T04:44:25.009Z,7.67
2017-09-22T04:46:52.716Z,8.27
2017-09-22T04:49:20.330Z,13.03
2017-09-22T04:51:47.956Z,8.00
2017-09-22T04:54:15.654Z,8.37
2017-09-22T04:56:43.632Z,6.73
2017-09-22T04:59:11.285Z,5.83
2017-09-22T05:01:38.888Z,7.77
2017-09-22T05:04:06.501Z,9.50
2017-09-22T05:06:34.118Z,6.67
2017-09-22T05:09:01.803Z,7.80
2017-09-22T05:11:29.428Z,10.23
2017-09-22T05:13:57.042Z,10.13
2017-09-22T05:16:24.731Z,7.83
2017-09-22T05:18:52.405Z,9.10
2017-09-22T05:21:20.017Z,7.33
2017-09-22T05:23:47.679Z,8.80
2017-09-22T05:26:15.307Z,7.63
2017-09-22T05:28:42.919Z,7.33
2017-09-22T05:31:10.586Z,7.27
2017-09-22T05:33:38.205Z,9.47
2017-09-22T05:36:05.825Z,10.23
2017-09-22T05:38:33.500Z,7.60
2017-09-22T05:41:01.112Z,9.10
2017-09-22T05:43:28.735Z,8.27
2017-09-22T05:45:56.419Z,6.93
2017-09-22T05:51:04.007Z,8.60
2017-09-22T05:53:31.634Z,7.90
2017-09-22T05:55:59.230Z,7.50
2017-09-22T05:58:26.936Z,10.30
2017-09-22T06:00:54.547Z,8.83
2017-09-22T06:03:22.159Z,9.73
2017-09-22T06:05:49.826Z,7.73
2017-09-22T06:08:17.437Z,7.53
2017-09-22T06:10:45.054Z,10.83
2017-09-22T06:13:12.799Z,9.63
2017-09-22T06:15:40.412Z,8.67
2017-09-22T06:18:08.022Z,8.00
2017-09-22T06:20:35.694Z,9.70
2017-09-22T06:23:03.308Z,6.73
2017-09-22T06:25:30.922Z,10.70
2017-09-22T06:27:58.629Z,11.43
2017-09-22T06:30:26.246Z,8.40
2017-09-22T06:32:54.117Z,8.13
2017-09-22T06:35:21.756Z,10.30
2017-09-22T06:37:49.377Z,6.77
2017-09-22T06:40:16.990Z,7.03
2017-09-22T06:42:44.745Z,7.63
2017-09-22T06:45:12.360Z,6.60
2017-09-22T06:47:39.970Z,4.90
2017-09-22T06:50:07.641Z,5.30
2017-09-22T06:52:35.248Z,9.63
2017-09-22T06:55:02.866Z,3.50
2017-09-22T06:57:30.537Z,4.30
2017-09-22T06:59:58.145Z,7.40
2017-09-22T07:02:25.762Z,6.17
2017-09-22T07:04:53.439Z,7.27
2017-09-22T07:07:21.056Z,4.63
2017-09-22T07:09:48.669Z,4.67
2017-09-22T07:12:16.341Z,6.53
2017-09-22T07:14:43.951Z,8.40
2017-09-22T07:19:51.573Z,6.35
2017-09-22T07:22:19.183Z,6.53
2017-09-22T07:24:46.797Z,5.93
2017-09-22T07:27:14.467Z,6.60
2017-09-22T07:29:42.084Z,5.37
2017-09-22T07:32:09.702Z,5.10
2017-09-22T07:34:37.368Z,4.40
2017-09-22T07:37:04.982Z,4.63
2017-09-22T07:39:32.600Z,3.63
2017-09-22T07:42:00.288Z,5.50
2017-09-22T07:44:27.900Z,5.43
2017-09-22T07:46:55.516Z,3.47
2017-09-22T07:49:23.210Z,7.70
2017-09-22T07:51:50.824Z,4.03
2017-09-22T07:54:18.444Z,4.67
2017-09-22T07:56:46.115Z,4.50
2017-09-22T07:59:13.760Z,5.60
2017-09-22T08:01:41.377Z,4.90
2017-09-22T08:04:09.068Z,6.37
2017-09-22T08:06:36.689Z,5.93
2017-09-22T08:09:04.307Z,3.77
2017-09-22T08:11:31.980Z,6.43
2017-09-22T08:13:59.595Z,7.30
2017-09-22T08:16:27.217Z,3.67
2017-09-22T08:18:54.915Z,5.00
2017-09-22T08:21:22.532Z,5.77
2017-09-22T08:23:50.153Z,4.43
2017-09-22T08:26:17.826Z,4.87
2017-09-22T08:28:45.445Z,3.67
2017-09-22T08:31:13.069Z,3.87
2017-09-22T08:33:40.765Z,7.10
2017-09-22T08:36:08.381Z,4.37
2017-09-22T08:38:35.999Z,9.90
2017-09-22T08:41:03.676Z,4.33
2017-09-22T08:46:11.407Z,3.45
2017-09-22T08:48:39.024Z,3.57
2017-09-22T08:51:07.590Z,4.63
2017-09-22T08:53:35.262Z,2.80
2017-09-22T08:56:02.904Z,2.23
2017-09-22T08:58:30.513Z,2.23
2017-09-22T09:00:58.227Z,2.00
2017-09-22T09:03:25.857Z,2.93
2017-09-22T09:05:53.471Z,2.57
2017-09-22T09:08:21.148Z,2.13
2017-09-22T09:10:48.772Z,2.37
2017-09-22T09:13:16.389Z,1.73
2017-09-22T09:15:44.064Z,2.47
2017-09-22T09:18:11.688Z,1.70
2017-09-22T09:20:40.165Z,2.93
2017-09-22T09:23:07.855Z,2.03
2017-09-22T09:25:35.474Z,2.70
2017-09-22T09:28:03.094Z,2.27
2017-09-22T09:30:30.773Z,1.70
2017-09-22T09:32:58.389Z,2.20
2017-09-22T09:35:26.005Z,2.73
2017-09-22T09:37:53.711Z,2.80
2017-09-22T09:40:21.336Z,1.50
2017-09-22T09:42:48.958Z,4.30
2017-09-22T09:45:16.635Z,2.20
2017-09-22T09:47:44.247Z,1.70
2017-09-22T09:50:11.870Z,1.80
2017-09-22T09:52:39.564Z,2.40
2017-09-22T09:55:07.177Z,4.00
2017-09-22T09:57:34.801Z,1.60
2017-09-22T10:00:02.527Z,2.47
2017-09-22T10:02:30.148Z,2.03
2017-09-22T10:04:57.827Z,1.70
2017-09-22T10:07:25.517Z,2.90
2017-09-22T10:12:32.274Z,3.05
2017-09-22T10:14:59.890Z,2.20
2017-09-22T10:17:27.505Z,2.43
2017-09-22T10:19:55.193Z,3.77
2017-09-22T10:22:22.803Z,2.07
2017-09-22T10:24:50.420Z,1.90
2017-09-22T10:27:18.115Z,2.07
2017-09-22T10:29:45.728Z,1.90
2017-09-22T10:32:14.191Z,2.93
2017-09-22T10:34:41.861Z,2.40
2017-09-22T10:37:09.485Z,2.87
2017-09-22T10:39:37.114Z,6.80
2017-09-22T10:42:04.782Z,2.00
2017-09-22T10:44:32.402Z,2.80
2017-09-22T10:47:00.020Z,1.90
2017-09-22T10:49:27.690Z,2.47
2017-09-22T10:51:56.172Z,2.03
2017-09-22T10:54:24.749Z,4.67
2017-09-22T10:56:53.374Z,2.53
2017-09-22T10:59:20.990Z,2.13
2017-09-22T11:01:49.477Z,1.97
2017-09-22T11:04:17.154Z,2.47
2017-09-22T11:06:44.768Z,1.93
2017-09-22T11:09:12.381Z,2.40
2017-09-22T11:11:40.055Z,2.40
2017-09-22T11:14:07.673Z,2.50
2017-09-22T11:16:35.290Z,2.37
2017-09-22T11:19:03.159Z,3.97
2017-09-22T11:21:30.585Z,2.77
2017-09-22T11:23:58.209Z,4.07
2017-09-22T11:26:25.879Z,2.37
2017-09-22T11:28:53.497Z,2.87
2017-09-22T11:31:20.623Z,2.70
2017-09-22T11:33:47.830Z,2.83
2017-09-22T11:36:15.445Z,4.63
2017-09-22T11:41:22.218Z,3.40
2017-09-22T11:43:49.842Z,2.93
2017-09-22T11:46:17.460Z,4.97
2017-09-22T11:48:45.147Z,3.77
2017-09-22T11:51:12.760Z,3.23
2017-09-22T11:53:40.383Z,4.90
2017-09-22T11:56:08.085Z,5.23
2017-09-22T11:58:35.706Z,2.47
2017-09-22T12:01:03.324Z,2.80
2017-09-22T12:03:31.007Z,2.80
2017-09-22T12:05:58.614Z,4.30
2017-09-22T12:08:26.232Z,5.83
2017-09-22T12:10:53.916Z,2.57
2017-09-22T12:13:21.532Z,3.57
2017-09-22T12:15:49.150Z,5.60
2017-09-22T12:18:16.823Z,7.50
2017-09-22T12:20:44.440Z,2.60
2017-09-22T12:23:12.057Z,2.80
2017-09-22T12:25:39.729Z,4.40
2017-09-22T12:28:07.350Z,3.80
2017-09-22T12:30:35.904Z,3.17
2017-09-22T12:33:03.600Z,4.23
2017-09-22T12:35:31.212Z,8.27
2017-09-22T12:37:58.830Z,6.33
2017-09-22T12:40:26.510Z,2.33
2017-09-22T12:42:54.122Z,2.30
2017-09-22T12:45:21.743Z,5.53
2017-09-22T12:47:49.413Z,2.07
2017-09-22T12:50:17.851Z,4.40
2017-09-22T12:52:45.475Z,4.17
2017-09-22T12:55:13.145Z,5.43
2017-09-22T12:57:40.766Z,8.50
2017-09-22T13:00:09.218Z,8.40
2017-09-22T13:02:36.894Z,8.00
2017-09-22T13:05:04.519Z,6.87
2017-09-22T13:10:11.264Z,4.28
2017-09-22T13:12:38.884Z,5.60
2017-09-22T13:15:06.503Z,3.27
2017-09-22T13:17:34.177Z,7.53
2017-09-22T13:20:01.794Z,4.93
2017-09-22T13:22:29.405Z,2.67
2017-09-22T13:24:57.905Z,2.80
2017-09-22T13:27:25.538Z,3.43
2017-09-22T13:29:53.155Z,4.10
2017-09-22T13:32:20.837Z,5.30
2017-09-22T13:34:48.458Z,3.57
2017-09-22T13:37:16.980Z,3.93
2017-09-22T13:39:44.612Z,4.30
2017-09-22T13:42:12.233Z,3.17
2017-09-22T13:44:39.854Z,5.53
2017-09-22T13:47:07.587Z,2.33
2017-09-22T13:49:35.535Z,3.67
2017-09-22T13:52:03.265Z,3.97
2017-09-22T13:54:30.949Z,6.03
2017-09-22T13:56:58.645Z,2.93
2017-09-22T13:59:26.527Z,3.17
2017-09-22T14:01:54.820Z,2.97
2017-09-22T14:04:23.460Z,2.97
2017-09-22T14:06:51.424Z,6.77
2017-09-22T14:09:19.017Z,3.87
2017-09-22T14:14:25.785Z,4.18
2017-09-22T14:25:29.487Z,4.37
2017-09-22T14:52:51.708Z,5.30
2017-09-22T15:03:18.649Z,4.97
2017-09-22T15:05:51.214Z,4.87
2017-09-22T15:14:10.548Z,4.50
2017-09-22T15:22:19.860Z,5.27
2017-09-22T15:24:47.472Z,4.03
2017-09-22T15:27:15.094Z,2.93
2017-09-22T15:29:43.608Z,3.23
2017-09-22T15:32:11.229Z,3.47
2017-09-22T15:34:38.850Z,6.17
2017-09-22T15:37:06.557Z,5.30
2017-09-22T15:39:34.213Z,5.60
2017-09-22T15:42:02.654Z,4.67
2017-09-22T15:44:30.355Z,7.53
2017-09-22T15:46:57.970Z,5.37
2017-09-22T15:49:25.588Z,5.10
2017-09-22T15:51:53.265Z,5.60
2017-09-22T15:54:20.906Z,4.97
2017-09-22T15:56:49.467Z,4.83
2017-09-22T15:59:17.161Z,5.47
2017-09-22T16:01:44.778Z,6.60
2017-09-22T16:04:12.397Z,4.53
2017-09-22T16:06:40.073Z,4.93
2017-09-22T16:09:08.620Z,5.87
2017-09-22T16:11:36.245Z,4.47
2017-09-22T16:14:03.948Z,5.90
2017-09-22T16:16:31.581Z,4.67
2017-09-22T16:19:00.037Z,3.77
2017-09-22T16:21:27.717Z,3.43
2017-09-22T16:23:56.195Z,4.57
2017-09-22T16:26:23.802Z,4.33
2017-09-22T16:28:51.506Z,8.03
2017-09-22T16:33:58.262Z,3.67
2017-09-22T16:36:25.878Z,6.93
2017-09-22T16:38:53.499Z,3.73
2017-09-22T16:41:21.215Z,6.70
2017-09-22T16:43:48.831Z,9.30
2017-09-22T16:46:16.447Z,4.00
2017-09-22T16:48:44.145Z,4.30
2017-09-22T16:51:11.789Z,10.97
2017-09-22T16:53:39.422Z,5.60
2017-09-22T16:56:07.859Z,7.00
2017-09-22T16:58:35.476Z,3.57
2017-09-22T17:01:03.941Z,6.10
2017-09-22T17:03:31.649Z,3.70
2017-09-22T17:05:59.270Z,3.37
2017-09-22T17:08:27.836Z,4.63
2017-09-22T17:10:56.468Z,3.63
2017-09-22T17:13:24.111Z,3.37
2017-09-22T17:15:52.535Z,4.53
2017-09-22T17:18:21.209Z,3.73
2017-09-22T17:20:48.839Z,3.43
2017-09-22T17:23:16.453Z,6.60
2017-09-22T17:25:44.134Z,4.90
2017-09-22T17:28:11.752Z,4.67
2017-09-22T17:30:39.381Z,5.53
2017-09-22T17:33:07.062Z,6.63
2017-09-22T17:35:34.671Z,4.73
2017-09-22T17:38:02.290Z,5.70
2017-09-22T17:40:29.988Z,2.97
2017-09-22T17:42:57.609Z,4.93
2017-09-22T17:45:25.227Z,6.03
2017-09-22T17:47:54.938Z,5.83
2017-09-22T17:50:22.549Z,9.17
2017-09-22T17:55:29.333Z,5.25
2017-09-22T17:57:56.951Z,9.50
2017-09-22T18:00:24.570Z,6.67
2017-09-22T18:02:52.250Z,9.57
2017-09-22T18:05:19.871Z,4.13
2017-09-22T18:07:48.342Z,4.57
2017-09-22T18:10:16.023Z,5.27
2017-09-22T18:12:43.649Z,11.40
2017-09-22T18:15:11.297Z,5.47
2017-09-22T18:17:38.935Z,3.27
2017-09-22T18:20:06.552Z,5.03
2017-09-22T18:22:34.237Z,4.93
2017-09-22T18:25:01.934Z,5.10
2017-09-22T18:27:29.562Z,4.10
2017-09-22T18:29:57.179Z,4.07
2017-09-22T18:32:24.873Z,6.00
2017-09-22T18:34:52.973Z,4.10
2017-09-22T18:37:21.073Z,9.33
2017-09-22T18:39:49.331Z,9.33
2017-09-22T18:42:16.960Z,6.93
2017-09-22T18:44:45.015Z,7.43
2017-09-22T18:47:13.212Z,7.13
2017-09-22T18:49:41.152Z,7.37
2017-09-22T18:52:09.896Z,6.33
2017-09-22T18:54:36.943Z,7.47
2017-09-22T18:57:04.944Z,5.17
2017-09-22T18:59:32.881Z,8.53
2017-09-22T19:02:00.981Z,3.80
2017-09-22T19:04:29.713Z,7.70
2017-09-22T19:06:57.747Z,8.77
2017-09-22T19:09:25.850Z,5.73
2017-09-22T19:11:53.412Z,5.10
2017-09-22T19:14:21.406Z,4.77
2017-09-22T19:16:49.252Z,5.60
2017-09-22T19:21:56.211Z,7.37
2017-09-22T19:24:24.022Z,3.53
2017-09-22T19:26:51.816Z,8.27
2017-09-22T19:29:19.452Z,7.33
2017-09-22T19:31:47.277Z,9.87
2017-09-22T19:34:14.973Z,10.23
2017-09-22T19:36:42.705Z,9.97
2017-09-22T19:39:10.510Z,11.27
2017-09-22T19:41:38.088Z,6.77
2017-09-22T19:44:05.904Z,6.40
2017-09-22T19:46:33.650Z,4.53
2017-09-22T19:49:01.727Z,5.40
2017-09-22T19:51:33.467Z,9.50
2017-09-22T19:53:57.564Z,7.80
2017-09-22T19:56:25.773Z,5.23
2017-09-22T19:58:53.975Z,5.27
2017-09-22T20:01:21.930Z,6.23
2017-09-22T20:03:50.327Z,10.70
2017-09-22T20:06:18.156Z,7.57
2017-09-22T20:08:46.003Z,4.80
2017-09-22T20:11:13.631Z,8.20
2017-09-22T20:13:41.572Z,8.60
2017-09-22T20:16:09.263Z,6.97
2017-09-22T20:18:37.159Z,4.67
2017-09-22T20:21:04.926Z,4.57
2017-09-22T20:23:32.762Z,3.93
2017-09-22T20:26:00.586Z,8.53
2017-09-22T20:28:28.621Z,10.27
2017-09-22T20:30:56.260Z,12.90
2017-09-22T20:33:23.997Z,8.13
2017-09-22T20:35:51.905Z,11.27
2017-09-22T20:38:19.461Z,13.10
2017-09-22T20:40:47.097Z,10.00
2017-09-22T20:43:14.817Z,17.27
2017-09-22T20:45:42.444Z,14.33
2017-09-22T20:50:49.200Z,9.55
2017-09-22T20:53:16.826Z,9.43
2017-09-22T20:55:44.443Z,8.63
2017-09-22T20:58:12.117Z,6.47
2017-09-22T21:00:39.754Z,7.63
2017-09-22T21:03:07.371Z,6.50
2017-09-22T21:05:35.044Z,8.83
2017-09-22T21:08:02.667Z,12.23
2017-09-22T21:10:30.291Z,17.33
2017-09-22T21:12:57.971Z,14.47
2017-09-22T21:15:25.595Z,15.80
2017-09-22T21:17:53.259Z,15.80
2017-09-22T21:20:20.971Z,13.93
2017-09-22T21:22:48.588Z,13.50
2017-09-22T21:25:16.215Z,16.70
2017-09-22T21:27:43.901Z,10.70
2017-09-22T21:30:11.530Z,8.70
2017-09-22T21:32:39.395Z,5.70
2017-09-22T21:35:07.080Z,9.40
2017-09-22T21:37:34.700Z,6.57
2017-09-22T21:40:02.331Z,9.37
2017-09-22T21:42:30.020Z,6.50
2017-09-22T21:44:57.631Z,6.40
2017-09-22T21:47:25.255Z,6.47
2017-09-22T21:49:52.955Z,9.53
2017-09-22T21:52:20.559Z,4.00
2017-09-22T21:54:48.415Z,7.17
2017-09-22T21:57:16.120Z,5.53
2017-09-22T21:59:43.812Z,9.03
2017-09-22T22:02:11.491Z,4.90
2017-09-22T22:04:44.883Z,5.10
2017-09-22T22:07:18.149Z,5.63
2017-09-22T22:15:08.098Z,6.80
2017-09-22T22:17:35.777Z,4.97
2017-09-22T22:20:03.543Z,6.67
2017-09-22T22:22:31.297Z,9.60
2017-09-22T22:24:58.981Z,4.87
2017-09-22T22:27:26.689Z,6.77
2017-09-22T22:29:54.417Z,4.17
2017-09-22T22:32:22.098Z,8.47
2017-09-22T22:34:49.766Z,5.33
2017-09-22T22:37:17.533Z,5.90
2017-09-22T22:39:45.189Z,5.13
2017-09-22T22:42:12.861Z,6.37
2017-09-22T22:44:40.608Z,5.80
2017-09-22T22:47:08.301Z,5.43
2017-09-22T22:49:35.965Z,7.87
2017-09-22T22:52:03.713Z,5.10
2017-09-22T22:54:31.394Z,7.10
2017-09-22T22:56:59.072Z,9.67
2017-09-22T22:59:26.800Z,6.23
2017-09-22T23:01:54.481Z,7.00
2017-09-22T23:04:22.142Z,6.00
2017-09-22T23:06:49.900Z,5.73
2017-09-22T23:09:17.557Z,7.67
2017-09-22T23:11:45.234Z,4.37
2017-09-22T23:14:13.020Z,5.90
2017-09-22T23:16:40.686Z,7.60
2017-09-22T23:19:08.365Z,4.57
2017-09-22T23:21:36.109Z,6.67
2017-09-22T23:24:03.760Z,7.33
2017-09-22T23:26:31.448Z,10.30
2017-09-22T23:28:59.199Z,6.23
2017-09-22T23:31:27.703Z,5.17
2017-09-22T23:33:55.386Z,5.70
2017-09-22T23:36:23.116Z,10.83
2017-09-22T23:41:31.980Z,7.82
2017-09-22T23:43:59.638Z,5.00
2017-09-22T23:46:27.297Z,4.00
2017-09-22T23:48:55.027Z,5.73
2017-09-22T23:51:22.708Z,7.20
2017-09-22T23:53:50.362Z,3.20
2017-09-22T23:56:18.116Z,4.50
2017-09-22T23:58:45.787Z,4.10
